sensor_id;sensor_type;location;lat;lon;timestamp;pressure;altitude;pressure_sealevel;temperature;humidity
57374;BME280;43964;53.890;25.340;2023-02-19T00:01:19;1008.8;;;3.6;62.2
57374;BME280;43964;53.890;25.340;2023-02-19T00:06:48;1008.8;;;3.6;62.2
57374;BME280;43964;53.890;25.340;2023-02-19T00:11:54;1008.9;;;3.6;62.2
57374;BME280;43964;53.890;25.340;2023-02-19T00:16:44;1008.9;;;3.6;62.2
57374;BME280;43964;53.890;25.340;2023-02-19T00:21:44;1009;;;3.6;62.2
57374;BME280;43964;53.890;25.340;2023-02-19T00:26:30;1008.9;;;3.7;62.2
57374;BME280;43964;53.890;25.340;2023-02-19T00:32:06;1008.9;;;3.7;62.3
57374;BME280;43964;53.890;25.340;2023-02-19T00:36:52;1008.9;;;3.6;62.6
57374;BME280;43964;53.890;25.340;2023-02-19T00:41:30;1008.9;;;3.6;62.7
57374;BME280;43964;53.890;25.340;2023-02-19T00:46:43;1008.9;;;3.6;62.9
57374;BME280;43964;53.890;25.340;2023-02-19T00:51:30;1008.9;;;3.5;63
57374;BME280;43964;53.890;25.340;2023-02-19T00:57:06;1008.9;;;3.5;63.1
57374;BME280;43964;53.890;25.340;2023-02-19T01:02:04;1008.9;;;3.4;63.1
57374;BME280;43964;53.890;25.340;2023-02-19T01:06:18;1008.9;;;3.4;63.1
57374;BME280;43964;53.890;25.340;2023-02-19T01:11:42;1008.9;;;3.3;63.2
57374;BME280;43964;53.890;25.340;2023-02-19T01:16:19;1008.9;;;3.3;63.3
57374;BME280;43964;53.890;25.340;2023-02-19T01:22:04;1008.9;;;3.2;63.3
57374;BME280;43964;53.890;25.340;2023-02-19T01:26:52;1009;;;3.2;63.4
57374;BME280;43964;53.890;25.340;2023-02-19T01:31:42;1009;;;3.2;63.5
57374;BME280;43964;53.890;25.340;2023-02-19T01:36:44;1009;;;3.1;63.8
57374;BME280;43964;53.890;25.340;2023-02-19T01:41:44;1009;;;3.1;64
57374;BME280;43964;53.890;25.340;2023-02-19T01:47:08;1009;;;3.1;64.2
57374;BME280;43964;53.890;25.340;2023-02-19T01:51:53;1009;;;3.1;64.3
57374;BME280;43964;53.890;25.340;2023-02-19T01:56:44;1009.1;;;3.1;64.4
57374;BME280;43964;53.890;25.340;2023-02-19T02:01:42;1009.1;;;3.1;64.3
57374;BME280;43964;53.890;25.340;2023-02-19T02:06:49;1009.1;;;3.1;64.3
57374;BME280;43964;53.890;25.340;2023-02-19T02:12:04;1009.1;;;3.1;64.3
57374;BME280;43964;53.890;25.340;2023-02-19T02:16:53;1009.1;;;3;64.3
57374;BME280;43964;53.890;25.340;2023-02-19T02:21:26;1009.1;;;3.1;64.3
57374;BME280;43964;53.890;25.340;2023-02-19T02:26:50;1009.1;;;3.1;64.4
57374;BME280;43964;53.890;25.340;2023-02-19T02:31:31;1009;;;3.1;64.5
57374;BME280;43964;53.890;25.340;2023-02-19T02:36:54;1009.1;;;3.1;64.7
57374;BME280;43964;53.890;25.340;2023-02-19T02:41:55;1009.1;;;3.1;64.8
57374;BME280;43964;53.890;25.340;2023-02-19T02:46:46;1009.1;;;3.1;64.9
57374;BME280;43964;53.890;25.340;2023-02-19T02:51:44;1009.2;;;3;65
57374;BME280;43964;53.890;25.340;2023-02-19T02:56:56;1009.2;;;3;65
57374;BME280;43964;53.890;25.340;2023-02-19T03:01:53;1009.2;;;3;65
57374;BME280;43964;53.890;25.340;2023-02-19T03:07:06;1009.3;;;3;65
57374;BME280;43964;53.890;25.340;2023-02-19T03:12:07;1009.3;;;3;65
57374;BME280;43964;53.890;25.340;2023-02-19T03:16:44;1009.3;;;3;65
57374;BME280;43964;53.890;25.340;2023-02-19T03:21:30;1009.3;;;3;65
57374;BME280;43964;53.890;25.340;2023-02-19T03:26:52;1009.3;;;3;65.1
57374;BME280;43964;53.890;25.340;2023-02-19T03:32:05;1009.3;;;2.9;65.3
57374;BME280;43964;53.890;25.340;2023-02-19T03:36:53;1009.3;;;2.9;65.4
57374;BME280;43964;53.890;25.340;2023-02-19T03:41:32;1009.3;;;2.8;65.6
57374;BME280;43964;53.890;25.340;2023-02-19T03:46:32;1009.3;;;2.8;65.7
57374;BME280;43964;53.890;25.340;2023-02-19T03:51:53;1009.3;;;2.8;65.8
57374;BME280;43964;53.890;25.340;2023-02-19T03:57:05;1009.3;;;2.8;65.7
57374;BME280;43964;53.890;25.340;2023-02-19T04:01:37;1009.4;;;2.8;65.7
57374;BME280;43964;53.890;25.340;2023-02-19T04:06:26;1009.3;;;2.8;65.6
57374;BME280;43964;53.890;25.340;2023-02-19T04:11:18;1009.4;;;2.8;65.6
57374;BME280;43964;53.890;25.340;2023-02-19T04:16:53;1009.4;;;2.9;65.6
57374;BME280;43964;53.890;25.340;2023-02-19T04:22:08;1009.3;;;2.9;65.6
57374;BME280;43964;53.890;25.340;2023-02-19T04:26:38;1009.3;;;2.9;65.7
57374;BME280;43964;53.890;25.340;2023-02-19T04:31:30;1009.3;;;2.9;65.8
57374;BME280;43964;53.890;25.340;2023-02-19T04:36:30;1009.3;;;2.9;65.8
57374;BME280;43964;53.890;25.340;2023-02-19T04:41:52;1009.2;;;2.8;65.9
57374;BME280;43964;53.890;25.340;2023-02-19T04:47:06;1009.3;;;3;65.8
57374;BME280;43964;53.890;25.340;2023-02-19T04:51:54;1009.4;;;3.2;65.6
57374;BME280;43964;53.890;25.340;2023-02-19T04:56:30;1009.4;;;3.4;65.4
57374;BME280;43964;53.890;25.340;2023-02-19T05:01:18;1009.3;;;3.5;65.3
57374;BME280;43964;53.890;25.340;2023-02-19T05:06:52;1009.4;;;3.5;65.2
57374;BME280;43964;53.890;25.340;2023-02-19T05:12:06;1009.5;;;3.5;65.2
57374;BME280;43964;53.890;25.340;2023-02-19T05:16:50;1009.5;;;3.6;65.1
57374;BME280;43964;53.890;25.340;2023-02-19T05:21:44;1009.4;;;3.6;65
57374;BME280;43964;53.890;25.340;2023-02-19T05:26:44;1009.5;;;3.7;65
57374;BME280;43964;53.890;25.340;2023-02-19T05:31:52;1009.4;;;3.7;64.9
57374;BME280;43964;53.890;25.340;2023-02-19T05:37:06;1009.5;;;3.8;64.9
57374;BME280;43964;53.890;25.340;2023-02-19T05:42:08;1009.5;;;3.8;64.8
57374;BME280;43964;53.890;25.340;2023-02-19T05:46:42;1009.5;;;3.9;64.7
57374;BME280;43964;53.890;25.340;2023-02-19T05:51:19;1009.5;;;4;64.6
57374;BME280;43964;53.890;25.340;2023-02-19T05:56:38;1009.5;;;4;64.6
57374;BME280;43964;53.890;25.340;2023-02-19T06:02:04;1009.4;;;4;64.5
57374;BME280;43964;53.890;25.340;2023-02-19T06:06:52;1009.4;;;4;64.4
57374;BME280;43964;53.890;25.340;2023-02-19T06:11:44;1009.3;;;4.1;64.3
57374;BME280;43964;53.890;25.340;2023-02-19T06:16:32;1009.3;;;4.2;64.2
57374;BME280;43964;53.890;25.340;2023-02-19T06:21:50;1009.3;;;4.4;64
57374;BME280;43964;53.890;25.340;2023-02-19T06:27:08;1009.3;;;4.5;63.7
57374;BME280;43964;53.890;25.340;2023-02-19T06:31:38;1009.4;;;4.8;63.4
57374;BME280;43964;53.890;25.340;2023-02-19T06:36:44;1009.4;;;5;63.1
57374;BME280;43964;53.890;25.340;2023-02-19T06:41:56;1009.4;;;5.2;63
57374;BME280;43964;53.890;25.340;2023-02-19T06:46:36;1009.4;;;5.6;62.6
57374;BME280;43964;53.890;25.340;2023-02-19T06:51:54;1009.5;;;5.8;62.1
57374;BME280;43964;53.890;25.340;2023-02-19T06:56:46;1009.5;;;6;61.7
57374;BME280;43964;53.890;25.340;2023-02-19T07:01:18;1009.5;;;6.2;61.5
57374;BME280;43964;53.890;25.340;2023-02-19T07:06:32;1009.5;;;6.3;61.2
57374;BME280;43964;53.890;25.340;2023-02-19T07:11:31;1009.5;;;6.2;60.9
57374;BME280;43964;53.890;25.340;2023-02-19T07:17:06;1009.5;;;6.1;60.4
57374;BME280;43964;53.890;25.340;2023-02-19T07:21:54;1009.5;;;6.1;60.1
57374;BME280;43964;53.890;25.340;2023-02-19T07:26:42;1009.5;;;6;60
57374;BME280;43964;53.890;25.340;2023-02-19T07:31:32;1009.5;;;5.9;60
57374;BME280;43964;53.890;25.340;2023-02-19T07:36:18;1009.5;;;5.9;60.1
57374;BME280;43964;53.890;25.340;2023-02-19T07:42:06;1009.5;;;6.2;60.1
57374;BME280;43964;53.890;25.340;2023-02-19T07:46:50;1009.5;;;6.3;60
57374;BME280;43964;53.890;25.340;2023-02-19T07:51:18;1009.5;;;6.4;59.9
57374;BME280;43964;53.890;25.340;2023-02-19T07:56:32;1009.5;;;6.7;59.7
57374;BME280;43964;53.890;25.340;2023-02-19T08:01:42;1009.4;;;6.9;59.4
57374;BME280;43964;53.890;25.340;2023-02-19T08:07:06;1009.4;;;7;58.8
57374;BME280;43964;53.890;25.340;2023-02-19T08:11:50;1009.4;;;7;58.4
57374;BME280;43964;53.890;25.340;2023-02-19T08:16:18;1009.4;;;7;58.1
57374;BME280;43964;53.890;25.340;2023-02-19T08:21:30;1009.4;;;7;57.9
57374;BME280;43964;53.890;25.340;2023-02-19T08:26:32;1009.4;;;7;57.7
57374;BME280;43964;53.890;25.340;2023-02-19T08:32:04;1009.4;;;7.1;57.6
57374;BME280;43964;53.890;25.340;2023-02-19T08:36:24;1009.5;;;7.5;57.2
57374;BME280;43964;53.890;25.340;2023-02-19T08:41:18;1009.6;;;7.9;56.6
57374;BME280;43964;53.890;25.340;2023-02-19T08:46:30;1009.6;;;8.2;56.4
57374;BME280;43964;53.890;25.340;2023-02-19T08:51:50;1009.7;;;8.4;56.1
57374;BME280;43964;53.890;25.340;2023-02-19T08:57:06;1009.7;;;8.5;55.7
57374;BME280;43964;53.890;25.340;2023-02-19T09:01:50;1009.8;;;8.3;55.1
57374;BME280;43964;53.890;25.340;2023-02-19T09:06:18;1009.8;;;7.8;53.8
57374;BME280;43964;53.890;25.340;2023-02-19T09:11:32;1009.8;;;7.7;52.9
57374;BME280;43964;53.890;25.340;2023-02-19T09:16:44;1009.8;;;7.8;52.2
57374;BME280;43964;53.890;25.340;2023-02-19T09:22:06;1009.8;;;7.6;51.8
57374;BME280;43964;53.890;25.340;2023-02-19T09:26:50;1009.8;;;7.8;51.6
57374;BME280;43964;53.890;25.340;2023-02-19T09:31:30;1009.9;;;7.7;51.4
57374;BME280;43964;53.890;25.340;2023-02-19T09:36:18;1009.9;;;7.8;51.6
57374;BME280;43964;53.890;25.340;2023-02-19T09:41:42;1009.8;;;8;51.1
57374;BME280;43964;53.890;25.340;2023-02-19T09:47:12;1009.9;;;8.1;51
57374;BME280;43964;53.890;25.340;2023-02-19T09:51:55;1009.9;;;8.4;50.7
57374;BME280;43964;53.890;25.340;2023-02-19T09:56:18;1009.9;;;8.7;50.2
57374;BME280;43964;53.890;25.340;2023-02-19T10:01:32;1009.9;;;8.7;49.7
57374;BME280;43964;53.890;25.340;2023-02-19T10:06:52;1010;;;8.6;48.7
57374;BME280;43964;53.890;25.340;2023-02-19T10:12:11;1010;;;8.4;48.1
57374;BME280;43964;53.890;25.340;2023-02-19T10:16:54;1010;;;8.1;47.7
57374;BME280;43964;53.890;25.340;2023-02-19T10:21:19;1010;;;7.8;47.4
57374;BME280;43964;53.890;25.340;2023-02-19T10:27:10;1009.9;;;7.5;47.6
57374;BME280;43964;53.890;25.340;2023-02-19T10:31:44;1010;;;7.3;47.7
57374;BME280;43964;53.890;25.340;2023-02-19T10:37:09;1010.1;;;7;47.8
57374;BME280;43964;53.890;25.340;2023-02-19T10:41:38;1010;;;6.9;47.7
57374;BME280;43964;53.890;25.340;2023-02-19T10:46:44;1010;;;7;47.4
57374;BME280;43964;53.890;25.340;2023-02-19T10:51:58;1010;;;7.3;47.1
57374;BME280;43964;53.890;25.340;2023-02-19T10:56:44;1010;;;7.4;47
57374;BME280;43964;53.890;25.340;2023-02-19T11:02:14;1010;;;7.5;46
57374;BME280;43964;53.890;25.340;2023-02-19T11:06:54;1009.9;;;7.5;45.2
57374;BME280;43964;53.890;25.340;2023-02-19T11:11:44;1009.9;;;7.6;44.5
57374;BME280;43964;53.890;25.340;2023-02-19T11:16:41;1009.9;;;7.9;44.6
57374;BME280;43964;53.890;25.340;2023-02-19T11:21:22;1009.8;;;8.2;44.4
57374;BME280;43964;53.890;25.340;2023-02-19T11:27:22;1009.9;;;8.4;44.3
57374;BME280;43964;53.890;25.340;2023-02-19T11:31:52;1009.9;;;8.5;44
57374;BME280;43964;53.890;25.340;2023-02-19T11:36:42;1009.9;;;8.5;43.4
57374;BME280;43964;53.890;25.340;2023-02-19T11:41:48;1009.9;;;8.3;43.3
57374;BME280;43964;53.890;25.340;2023-02-19T11:46:53;1010;;;8;43.2
57374;BME280;43964;53.890;25.340;2023-02-19T11:52:11;1010;;;7.8;42.7
57374;BME280;43964;53.890;25.340;2023-02-19T11:56:53;1010;;;7.8;41.9
57374;BME280;43964;53.890;25.340;2023-02-19T12:01:41;1010;;;7.5;41
57374;BME280;43964;53.890;25.340;2023-02-19T12:06:19;1010.1;;;7.5;40.7
57374;BME280;43964;53.890;25.340;2023-02-19T12:11:34;1010.1;;;7.6;40.4
57374;BME280;43964;53.890;25.340;2023-02-19T12:17:07;1010.1;;;7.6;40.4
57374;BME280;43964;53.890;25.340;2023-02-19T12:21:57;1010.1;;;7.5;40.2
57374;BME280;43964;53.890;25.340;2023-02-19T12:26:46;1010.1;;;7.4;40.3
57374;BME280;43964;53.890;25.340;2023-02-19T12:32:07;1010.1;;;7.5;40.2
57374;BME280;43964;53.890;25.340;2023-02-19T12:36:54;1010.1;;;7.5;40.2
57374;BME280;43964;53.890;25.340;2023-02-19T12:42:10;1010.1;;;7.4;40.3
57374;BME280;43964;53.890;25.340;2023-02-19T12:46:55;1010.1;;;7.2;40.3
57374;BME280;43964;53.890;25.340;2023-02-19T12:51:35;1010.1;;;7.1;40.3
57374;BME280;43964;53.890;25.340;2023-02-19T12:56:32;1010.1;;;7;39.8
57374;BME280;43964;53.890;25.340;2023-02-19T13:01:44;1010.1;;;6.9;39.7
57374;BME280;43964;53.890;25.340;2023-02-19T13:07:08;1010.1;;;6.8;39.3
57374;BME280;43964;53.890;25.340;2023-02-19T13:12:05;1010.1;;;6.9;39.1
57374;BME280;43964;53.890;25.340;2023-02-19T13:16:40;1010.2;;;7.1;38.5
57374;BME280;43964;53.890;25.340;2023-02-19T13:21:33;1010.2;;;7.3;38.4
57374;BME280;43964;53.890;25.340;2023-02-19T13:26:43;1010.3;;;7.3;38.6
57374;BME280;43964;53.890;25.340;2023-02-19T13:32:09;1010.4;;;7.2;38.8
57374;BME280;43964;53.890;25.340;2023-02-19T13:36:32;1010.4;;;7.2;39
57374;BME280;43964;53.890;25.340;2023-02-19T13:41:30;1010.5;;;7.3;39
57374;BME280;43964;53.890;25.340;2023-02-19T13:46:35;1010.5;;;7.2;39
57374;BME280;43964;53.890;25.340;2023-02-19T13:51:49;1010.5;;;7;38.5
57374;BME280;43964;53.890;25.340;2023-02-19T13:57:37;1010.6;;;6.8;38.1
57374;BME280;43964;53.890;25.340;2023-02-19T14:02:37;1010.7;;;6.9;38
57374;BME280;43964;53.890;25.340;2023-02-19T14:06:36;1010.7;;;7;37.8
57374;BME280;43964;53.890;25.340;2023-02-19T14:12:03;1010.7;;;7.1;37.5
57374;BME280;43964;53.890;25.340;2023-02-19T14:16:31;1010.7;;;7;37.7
57374;BME280;43964;53.890;25.340;2023-02-19T14:23:14;1010.8;;;7.1;37.9
57374;BME280;43964;53.890;25.340;2023-02-19T14:26:54;1010.9;;;7.1;38
57374;BME280;43964;53.890;25.340;2023-02-19T14:31:32;1011;;;7;38.3
57374;BME280;43964;53.890;25.340;2023-02-19T14:36:21;1010.9;;;6.7;38.5
57374;BME280;43964;53.890;25.340;2023-02-19T14:41:45;1011;;;6.4;38.6
57374;BME280;43964;53.890;25.340;2023-02-19T14:47:12;1011;;;6.2;38.7
57374;BME280;43964;53.890;25.340;2023-02-19T14:51:39;1011;;;6;38.8
57374;BME280;43964;53.890;25.340;2023-02-19T14:56:44;1011.1;;;5.8;38.8
57374;BME280;43964;53.890;25.340;2023-02-19T15:01:51;1011.1;;;5.7;39
57374;BME280;43964;53.890;25.340;2023-02-19T15:06:18;1011.2;;;5.5;39.2
57374;BME280;43964;53.890;25.340;2023-02-19T15:12:12;1011.3;;;5.2;39.5
57374;BME280;43964;53.890;25.340;2023-02-19T15:16:55;1011.4;;;5.1;39.8
57374;BME280;43964;53.890;25.340;2023-02-19T15:21:32;1011.5;;;4.9;40
57374;BME280;43964;53.890;25.340;2023-02-19T15:26:33;1011.5;;;4.9;40.1
57374;BME280;43964;53.890;25.340;2023-02-19T15:31:44;1011.5;;;4.9;40.3
57374;BME280;43964;53.890;25.340;2023-02-19T15:37:08;1011.6;;;4.9;40.5
57374;BME280;43964;53.890;25.340;2023-02-19T15:41:40;1011.6;;;4.7;40.7
57374;BME280;43964;53.890;25.340;2023-02-19T15:46:58;1011.7;;;4.7;41
57374;BME280;43964;53.890;25.340;2023-02-19T15:51:33;1011.7;;;4.6;41.4
57374;BME280;43964;53.890;25.340;2023-02-19T15:57:11;1011.7;;;4.5;41.7
57374;BME280;43964;53.890;25.340;2023-02-19T16:01:56;1011.7;;;4.4;42
57374;BME280;43964;53.890;25.340;2023-02-19T16:07:19;1011.8;;;4.2;42.3
57374;BME280;43964;53.890;25.340;2023-02-19T16:11:58;1012;;;4.2;42.5
57374;BME280;43964;53.890;25.340;2023-02-19T16:16:20;1012;;;4.1;42.6
57374;BME280;43964;53.890;25.340;2023-02-19T16:22:08;1012;;;4;42.8
57374;BME280;43964;53.890;25.340;2023-02-19T16:26:46;1012.1;;;3.9;43
57374;BME280;43964;53.890;25.340;2023-02-19T16:31:24;1012.1;;;3.8;43.2
57374;BME280;43964;53.890;25.340;2023-02-19T16:36:58;1012.2;;;3.7;43.4
57374;BME280;43964;53.890;25.340;2023-02-19T16:42:17;1012.3;;;3.6;43.7
57374;BME280;43964;53.890;25.340;2023-02-19T16:47:13;1012.4;;;3.5;44.2
57374;BME280;43964;53.890;25.340;2023-02-19T16:51:20;1012.4;;;3.5;44.5
57374;BME280;43964;53.890;25.340;2023-02-19T16:56:38;1012.5;;;3.4;44.7
57374;BME280;43964;53.890;25.340;2023-02-19T17:01:53;1012.6;;;3.3;44.8
57374;BME280;43964;53.890;25.340;2023-02-19T17:06:52;1012.6;;;3.3;44.8
57374;BME280;43964;53.890;25.340;2023-02-19T17:12:09;1012.6;;;3.2;44.7
57374;BME280;43964;53.890;25.340;2023-02-19T17:16:58;1012.7;;;3.2;44.7
57374;BME280;43964;53.890;25.340;2023-02-19T17:21:38;1012.7;;;3.1;44.7
57374;BME280;43964;53.890;25.340;2023-02-19T17:26:42;1012.8;;;3.1;44.7
57374;BME280;43964;53.890;25.340;2023-02-19T17:31:46;1012.8;;;3.1;44.8
57374;BME280;43964;53.890;25.340;2023-02-19T17:37:08;1012.7;;;3;45
57374;BME280;43964;53.890;25.340;2023-02-19T17:41:56;1012.8;;;2.9;45.3
57374;BME280;43964;53.890;25.340;2023-02-19T17:46:30;1012.8;;;2.9;45.6
57374;BME280;43964;53.890;25.340;2023-02-19T17:51:58;1012.9;;;2.9;45.9
57374;BME280;43964;53.890;25.340;2023-02-19T17:56:33;1013;;;2.8;46.3
57374;BME280;43964;53.890;25.340;2023-02-19T18:02:04;1013;;;2.7;46.6
57374;BME280;43964;53.890;25.340;2023-02-19T18:06:58;1013.1;;;2.7;46.7
57374;BME280;43964;53.890;25.340;2023-02-19T18:11:24;1013.1;;;2.6;46.9
57374;BME280;43964;53.890;25.340;2023-02-19T18:16:59;1013.2;;;2.6;47.2
57374;BME280;43964;53.890;25.340;2023-02-19T18:21:30;1013.2;;;2.6;47.4
57374;BME280;43964;53.890;25.340;2023-02-19T18:27:08;1013.2;;;2.6;47.5
57374;BME280;43964;53.890;25.340;2023-02-19T18:31:58;1013.2;;;2.6;47.8
57374;BME280;43964;53.890;25.340;2023-02-19T18:36:26;1013.3;;;2.6;48.4
57374;BME280;43964;53.890;25.340;2023-02-19T18:41:58;1013.3;;;2.6;48.8
57374;BME280;43964;53.890;25.340;2023-02-19T18:46:19;1013.4;;;2.6;49
57374;BME280;43964;53.890;25.340;2023-02-19T18:52:08;1013.5;;;2.6;49.2
57374;BME280;43964;53.890;25.340;2023-02-19T18:56:58;1013.5;;;2.7;49.3
57374;BME280;43964;53.890;25.340;2023-02-19T19:01:36;1013.6;;;2.7;49.1
57374;BME280;43964;53.890;25.340;2023-02-19T19:06:58;1013.7;;;2.7;49.2
57374;BME280;43964;53.890;25.340;2023-02-19T19:11:32;1013.6;;;2.7;49.1
57374;BME280;43964;53.890;25.340;2023-02-19T19:17:07;1013.6;;;2.7;49.2
57374;BME280;43964;53.890;25.340;2023-02-19T19:21:32;1013.7;;;2.7;49.2
57374;BME280;43964;53.890;25.340;2023-02-19T19:26:26;1013.6;;;2.7;49.2
57374;BME280;43964;53.890;25.340;2023-02-19T19:31:32;1013.7;;;2.7;49.6
57374;BME280;43964;53.890;25.340;2023-02-19T19:36:32;1013.6;;;2.7;49.8
57374;BME280;43964;53.890;25.340;2023-02-19T19:42:08;1013.7;;;2.7;50
57374;BME280;43964;53.890;25.340;2023-02-19T19:46:58;1013.7;;;2.6;50.2
57374;BME280;43964;53.890;25.340;2023-02-19T19:51:29;1013.7;;;2.5;50.4
57374;BME280;43964;53.890;25.340;2023-02-19T19:57:08;1013.8;;;2.5;50.4
57374;BME280;43964;53.890;25.340;2023-02-19T20:01:18;1013.8;;;2.4;50.4
57374;BME280;43964;53.890;25.340;2023-02-19T20:06:42;1013.8;;;2.3;50.5
57374;BME280;43964;53.890;25.340;2023-02-19T20:11:47;1013.9;;;2.2;50.6
57374;BME280;43964;53.890;25.340;2023-02-19T20:16:40;1013.9;;;2.1;50.7
57374;BME280;43964;53.890;25.340;2023-02-19T20:22:08;1014;;;2.1;50.8
57374;BME280;43964;53.890;25.340;2023-02-19T20:26:32;1014;;;2;50.9
57374;BME280;43964;53.890;25.340;2023-02-19T20:31:48;1014;;;2;51.3
57374;BME280;43964;53.890;25.340;2023-02-19T20:36:30;1014;;;1.9;51.5
57374;BME280;43964;53.890;25.340;2023-02-19T20:41:38;1014.1;;;1.9;51.7
57374;BME280;43964;53.890;25.340;2023-02-19T20:47:00;1014.1;;;1.9;51.9
57374;BME280;43964;53.890;25.340;2023-02-19T20:51:30;1014.2;;;1.9;52
57374;BME280;43964;53.890;25.340;2023-02-19T20:56:51;1014.3;;;2;51.9
57374;BME280;43964;53.890;25.340;2023-02-19T21:01:23;1014.3;;;2.1;51.8
57374;BME280;43964;53.890;25.340;2023-02-19T21:06:38;1014.3;;;2.1;51.8
57374;BME280;43964;53.890;25.340;2023-02-19T21:12:06;1014.4;;;2;51.9
57374;BME280;43964;53.890;25.340;2023-02-19T21:16:18;1014.5;;;2;51.9
57374;BME280;43964;53.890;25.340;2023-02-19T21:21:48;1014.5;;;2;51.9
57374;BME280;43964;53.890;25.340;2023-02-19T21:26:46;1014.5;;;2;52.1
57374;BME280;43964;53.890;25.340;2023-02-19T21:31:39;1014.6;;;1.9;52.5
57374;BME280;43964;53.890;25.340;2023-02-19T21:37:06;1014.6;;;2;52.6
57374;BME280;43964;53.890;25.340;2023-02-19T21:41:32;1014.6;;;2;52.8
57374;BME280;43964;53.890;25.340;2023-02-19T21:46:48;1014.5;;;1.9;53
57374;BME280;43964;53.890;25.340;2023-02-19T21:51:47;1014.5;;;1.8;53
57374;BME280;43964;53.890;25.340;2023-02-19T21:56:40;1014.6;;;1.8;53
57374;BME280;43964;53.890;25.340;2023-02-19T22:02:02;1014.7;;;1.7;53
57374;BME280;43964;53.890;25.340;2023-02-19T22:06:30;1014.7;;;1.7;53.1
57374;BME280;43964;53.890;25.340;2023-02-19T22:11:38;1014.8;;;1.7;53.1
57374;BME280;43964;53.890;25.340;2023-02-19T22:16:18;1014.8;;;1.7;53.2
57374;BME280;43964;53.890;25.340;2023-02-19T22:21:40;1014.8;;;1.7;53.4
57374;BME280;43964;53.890;25.340;2023-02-19T22:27:06;1014.8;;;1.7;53.6
57374;BME280;43964;53.890;25.340;2023-02-19T22:31:30;1014.8;;;1.6;53.7
57374;BME280;43964;53.890;25.340;2023-02-19T22:36:50;1014.8;;;1.6;53.9
57374;BME280;43964;53.890;25.340;2023-02-19T22:41:32;1014.8;;;1.6;54
57374;BME280;43964;53.890;25.340;2023-02-19T22:46:18;1014.9;;;1.5;54.1
57374;BME280;43964;53.890;25.340;2023-02-19T22:52:06;1014.9;;;1.5;54
57374;BME280;43964;53.890;25.340;2023-02-19T22:56:32;1014.9;;;1.5;54
57374;BME280;43964;53.890;25.340;2023-02-19T23:01:46;1014.9;;;1.5;54
57374;BME280;43964;53.890;25.340;2023-02-19T23:06:33;1014.9;;;1.5;54
57374;BME280;43964;53.890;25.340;2023-02-19T23:11:24;1015;;;1.4;54
57374;BME280;43964;53.890;25.340;2023-02-19T23:17:06;1015;;;1.4;54.2
57374;BME280;43964;53.890;25.340;2023-02-19T23:21:18;1015;;;1.4;54.3
57374;BME280;43964;53.890;25.340;2023-02-19T23:26:49;1015.1;;;1.5;54.3
57374;BME280;43964;53.890;25.340;2023-02-19T23:31:18;1015;;;1.6;54.3
57374;BME280;43964;53.890;25.340;2023-02-19T23:36:38;1015;;;1.6;54.4
57374;BME280;43964;53.890;25.340;2023-02-19T23:42:04;1015.1;;;1.7;54.3
57374;BME280;43964;53.890;25.340;2023-02-19T23:46:18;1015.1;;;1.8;54.2
57374;BME280;43964;53.890;25.340;2023-02-19T23:51:34;1015.1;;;1.8;54.1
57374;BME280;43964;53.890;25.340;2023-02-19T23:56:44;1015.1;;;1.8;54.2
